423  
FGUS64 KORN 011620  
ESPORN  
 
EXTENDED STREAMFLOW PREDICTION  
NATIONAL WEATHER SERVICE RIVER FORECAST CENTER, SLIDELL, LA  
1018 AM CST MON MAR 01 2021  
 
DATE CPGM7 CIRI2 NMDM7 TPTM7 CRTM7 OSGA4 MEMT1 MHOM6 HEEA4  
03-02-21 23.1 40.5 27.7 30.9 27.4 20.3 20.5 19.2 26.9  
03-03-21 24.0 42.3 29.6 32.5 29.4 22.8 22.9 21.2 29.1  
03-04-21 24.5 43.6 31.2 33.5 30.6 24.3 24.3 22.8 30.9  
03-05-21 24.5 44.2 32.0 34.4 31.4 25.5 25.7 23.8 32.2  
03-06-21 23.8 44.8 32.5 35.0 32.1 26.6 26.7 24.8 33.2  
03-07-21 23.2 45.1 33.1 35.3 32.6 27.3 27.6 25.7 34.1  
03-08-21 22.7 45.5 33.4 35.4 33.0 28.2 28.3 26.4 34.9  
03-09-21 22.4 45.6 33.7 35.7 33.2 28.7 28.8 27.0 35.7  
03-10-21 22.2 45.8 33.9 35.8 33.5 29.3 29.2 27.5 36.3  
03-11-21 22.2 46.0 34.0 36.0 33.7 29.6 29.5 27.9 37.0  
03-12-21 22.3 46.0 34.0 36.0 33.9 29.9 29.8 28.1 37.4  
03-13-21 22.5 46.0 34.0 36.0 34.0 30.0 30.0 28.3 37.7  
03-14-21 22.6 45.2 34.0 36.0 34.0 30.0 30.0 28.4 37.9  
03-15-21 22.6 41.7 32.2 35.5 33.4 29.9 30.1 28.5 38.0  
03-16-21 22.2 36.5 27.5 33.5 32.1 29.0 30.1 28.4 38.1  
03-17-21 21.5 33.4 23.4 29.8 29.3 26.9 29.8 27.8 38.0  
03-18-21 21.1 31.8 21.3 27.0 25.6 24.7 28.7 26.4 37.2  
03-19-21 20.9 30.8 20.2 25.6 23.8 22.6 26.8 24.4 35.5  
03-20-21 20.6 30.0 19.4 24.8 22.8 20.5 24.8 22.5 33.3  
03-21-21 20.3 29.4 18.8 24.1 22.0 19.1 22.8 20.7 31.5  
03-22-21 20.0 28.9 18.3 23.6 21.5 17.8 21.1 19.3 29.5  
03-23-21 19.5 28.5 17.9 23.1 21.0 16.9 19.8 18.1 28.2  
03-24-21 19.1 28.0 17.4 22.7 20.6 16.2 18.6 17.2 27.1  
03-25-21 18.7 27.6 17.0 22.2 20.2 15.7 17.9 16.5 26.3  
03-26-21 18.2 27.3 16.7 21.9 19.8 15.2 17.3 16.0 25.6  
03-27-21 17.9 27.0 16.4 21.6 19.5 14.8 16.8 15.5 25.0  
03-28-21 17.5 26.8 16.2 21.4 19.2 14.3 16.3 15.1 24.4  
03-29-21 17.2 26.6 16.0 21.1 18.9 14.0 15.9 14.7 24.0  
 
DATE ARSA4 GEEM6 VCKM6 NTZM6 RRLL1 BTRL1 DONL1 RRVL1 NORL1  
03-02-21 22.6 31.8 27.0 35.0 37.2 21.5 13.5 10.3 7.0  
03-03-21 24.8 34.2 28.6 36.2 38.2 22.3 13.9 10.6 7.2  
03-04-21 26.6 36.4 30.9 37.4 39.4 23.1 14.6 11.1 7.4  
03-05-21 28.2 38.1 32.8 38.7 40.6 24.1 15.3 11.5 7.8  
03-06-21 29.4 39.7 34.1 39.9 41.8 25.1 16.0 12.0 8.1  
03-07-21 30.2 40.7 35.2 41.1 42.9 26.1 16.7 12.5 8.5  
03-08-21 31.0 41.7 36.2 42.1 44.0 27.0 17.4 13.0 8.8  
03-09-21 31.5 42.5 36.9 43.2 45.0 27.9 18.0 13.5 9.2  
03-10-21 32.1 43.2 37.7 44.1 46.0 28.8 18.7 13.9 9.5  
03-11-21 32.3 43.9 38.3 44.6 46.9 29.8 19.4 14.4 9.9  
03-12-21 32.7 44.3 38.9 45.0 47.4 30.2 20.0 14.9 10.2  
03-13-21 32.9 44.7 39.2 45.3 47.8 30.7 20.5 15.3 10.5  
03-14-21 33.0 45.0 39.3 45.8 48.2 31.0 20.9 15.6 10.8  
03-15-21 33.1 45.1 39.6 46.2 48.6 31.5 21.4 15.9 11.0  
03-16-21 33.2 45.3 39.8 46.7 49.0 31.8 21.9 16.3 11.2  
03-17-21 33.4 45.5 39.9 46.8 49.4 32.1 22.3 16.7 11.4  
03-18-21 33.6 45.5 40.0 46.8 49.5 32.3 22.8 17.0 11.6  
03-19-21 33.6 45.6 40.1 46.9 49.5 32.6 23.2 17.3 11.8  
03-20-21 33.3 45.5 40.1 47.0 49.6 32.8 23.5 17.6 12.0  
03-21-21 32.3 45.4 40.2 47.1 49.7 32.9 23.7 17.9 12.3  
03-22-21 31.0 44.9 40.0 47.2 49.8 33.1 23.9 18.1 12.5  
03-23-21 29.5 43.9 39.6 47.2 50.0 33.2 23.9 18.3 12.6  
03-24-21 28.1 42.7 38.9 47.1 50.0 33.4 23.9 18.3 12.7  
03-25-21 27.1 41.3 37.9 46.8 50.0 33.5 24.0 18.4 12.7  
03-26-21 26.3 40.2 36.8 46.3 49.8 33.5 23.9 18.4 12.7  
03-27-21 25.7 39.1 35.7 45.3 49.3 33.5 23.8 18.3 12.7  
03-28-21 25.0 38.0 34.6 44.3 48.4 33.4 23.6 18.2 12.6  
03-29-21 24.6 36.8 33.9 43.5 47.8 32.5 23.1 17.9 12.5  
 
NOTE: STAGE FORECASTS ARE BASED ON FUTURE RAINFALL COVERING  
THE NEXT 48 HOURS.  
 
END ORN  
 

 
 
CLICK HERE TO GO TO PREVIOUS BULLETINS.

The Nexlab RFC Page Main Text Page